createdAt,value
2023-03-02T00:01:45.456Z,47.23
2023-03-02T00:04:27.732Z,45.90
2023-03-02T00:06:59.688Z,39.40
2023-03-02T00:09:28.152Z,37.07
2023-03-02T00:11:55.258Z,37.27
2023-03-02T00:14:22.309Z,31.17
2023-03-02T00:16:49.240Z,34.23
2023-03-02T00:19:16.275Z,34.80
2023-03-02T00:21:43.316Z,44.87
2023-03-02T00:24:10.372Z,26.00
2023-03-02T00:26:37.776Z,25.20
2023-03-02T00:29:04.877Z,37.83
2023-03-02T00:31:32.629Z,26.97
2023-03-02T00:33:59.566Z,20.07
2023-03-02T00:36:26.482Z,26.10
2023-03-02T00:38:53.668Z,24.50
2023-03-02T00:41:21.603Z,26.20
2023-03-02T00:43:50.162Z,41.80
2023-03-02T00:46:22.375Z,65.23
2023-03-02T00:48:50.088Z,33.53
2023-03-02T00:51:17.957Z,28.00
2023-03-02T00:53:45.143Z,20.93
2023-03-02T00:56:12.221Z,21.00
2023-03-02T00:58:39.726Z,34.97
2023-03-02T01:01:13.176Z,20.43
2023-03-02T01:03:40.367Z,26.33
2023-03-02T01:06:19.538Z,21.87
2023-03-02T01:08:46.451Z,27.07
2023-03-02T01:11:16.328Z,21.77
2023-03-02T01:13:43.916Z,17.80
2023-03-02T01:16:11.902Z,19.20
2023-03-02T01:18:39.032Z,21.80
2023-03-02T01:21:12.961Z,18.47
2023-03-02T01:23:39.915Z,22.77
2023-03-02T01:26:07.698Z,27.90
2023-03-02T01:28:34.588Z,17.83
2023-03-02T01:31:03.164Z,13.60
2023-03-02T01:33:30.837Z,24.57
2023-03-02T01:35:57.924Z,21.17
2023-03-02T01:38:24.906Z,18.13
2023-03-02T01:40:51.859Z,19.70
2023-03-02T01:43:18.751Z,20.27
2023-03-02T01:45:54.871Z,18.67
2023-03-02T01:48:58.675Z,20.57
2023-03-02T01:51:28.921Z,23.20
2023-03-02T01:54:01.313Z,25.20
2023-03-02T01:56:34.782Z,19.80
2023-03-02T01:59:09.481Z,16.33
2023-03-02T02:01:41.406Z,19.17
2023-03-02T02:04:08.597Z,21.30
2023-03-02T02:06:41.159Z,16.20
2023-03-02T02:09:13.490Z,20.83
2023-03-02T02:11:40.363Z,19.50
2023-03-02T02:14:07.568Z,16.80
2023-03-02T02:16:36.186Z,19.57
2023-03-02T02:19:12.923Z,20.90
2023-03-02T02:21:39.940Z,19.03
2023-03-02T02:24:22.100Z,18.20
2023-03-02T02:26:57.383Z,19.90
2023-03-02T02:29:30.997Z,19.97
2023-03-02T02:32:22.863Z,18.50
2023-03-02T02:35:12.643Z,19.67
2023-03-02T02:37:55.746Z,21.03
2023-03-02T02:40:48.501Z,25.87
2023-03-02T02:43:19.866Z,21.10
2023-03-02T02:45:52.337Z,16.60
2023-03-02T02:48:25.365Z,30.93
2023-03-02T02:51:00.234Z,24.67
2023-03-02T02:53:58.604Z,20.63
2023-03-02T02:56:33.343Z,17.10
2023-03-02T02:59:17.610Z,20.80
2023-03-02T03:01:46.873Z,26.80
2023-03-02T03:04:18.900Z,21.57
2023-03-02T03:07:01.399Z,21.90
2023-03-02T03:09:28.951Z,18.60
2023-03-02T03:12:02.195Z,23.00
2023-03-02T03:14:35.612Z,22.73
2023-03-02T03:17:02.635Z,22.60
2023-03-02T03:19:32.714Z,22.70
2023-03-02T03:22:02.503Z,23.30
2023-03-02T03:24:32.091Z,18.13
2023-03-02T03:26:59.764Z,28.50
2023-03-02T03:29:29.346Z,21.60
2023-03-02T03:31:58.298Z,22.87
2023-03-02T03:34:25.942Z,22.63
2023-03-02T03:36:53.074Z,26.00
2023-03-02T03:39:20.361Z,22.23
2023-03-02T03:41:47.295Z,30.13
2023-03-02T03:44:14.234Z,28.77
2023-03-02T03:46:41.142Z,24.37
2023-03-02T03:49:08.034Z,20.30
2023-03-02T03:51:35.233Z,26.17
2023-03-02T03:54:08.370Z,20.33
2023-03-02T03:56:40.990Z,20.63
2023-03-02T03:59:12.485Z,22.87
2023-03-02T04:01:52.718Z,20.23
2023-03-02T04:04:27.311Z,25.83
2023-03-02T04:06:54.645Z,26.57
2023-03-02T04:09:23.270Z,23.47
2023-03-02T04:11:54.548Z,22.97
2023-03-02T04:14:23.714Z,23.10
2023-03-02T04:16:51.814Z,21.27
2023-03-02T04:19:19.089Z,21.97
2023-03-02T04:21:50.665Z,27.00
2023-03-02T04:24:20.341Z,21.27
2023-03-02T04:26:49.166Z,24.30
2023-03-02T04:29:17.932Z,29.83
2023-03-02T04:31:44.808Z,21.90
2023-03-02T04:34:11.845Z,20.60
2023-03-02T04:36:40.159Z,34.73
2023-03-02T04:39:08.032Z,29.07
2023-03-02T04:41:35.818Z,25.87
2023-03-02T04:44:03.025Z,22.90
2023-03-02T04:46:30.030Z,23.43
2023-03-02T04:48:57.064Z,32.13
2023-03-02T04:51:31.262Z,28.13
2023-03-02T04:54:05.896Z,22.80
2023-03-02T04:56:33.449Z,23.80
2023-03-02T04:59:00.777Z,21.40
2023-03-02T05:01:28.299Z,20.60
2023-03-02T05:03:55.281Z,28.00
2023-03-02T05:06:24.585Z,25.90
2023-03-02T05:08:53.406Z,21.60
2023-03-02T05:11:29.869Z,23.30
2023-03-02T05:14:01.002Z,24.33
2023-03-02T05:16:32.474Z,23.37
2023-03-02T05:19:01.544Z,19.23
2023-03-02T05:21:28.488Z,21.00
2023-03-02T05:23:55.399Z,20.40
2023-03-02T05:26:22.835Z,21.67
2023-03-02T05:28:50.114Z,27.07
2023-03-02T05:31:24.350Z,24.43
2023-03-02T05:33:51.334Z,23.53
2023-03-02T05:36:19.900Z,39.07
2023-03-02T05:38:48.229Z,29.60
2023-03-02T05:41:15.451Z,26.70
2023-03-02T05:43:42.393Z,26.80
2023-03-02T05:46:09.310Z,24.13
2023-03-02T05:48:36.218Z,24.33
2023-03-02T05:51:03.331Z,48.67
2023-03-02T05:53:30.251Z,31.00
2023-03-02T05:55:57.106Z,27.40
2023-03-02T05:58:24.096Z,28.10
2023-03-02T06:00:51.847Z,31.47
2023-03-02T06:03:19.206Z,34.97
2023-03-02T06:05:50.900Z,32.80
2023-03-02T06:08:20.109Z,42.17
2023-03-02T06:10:47.166Z,36.43
2023-03-02T06:13:14.054Z,34.90
2023-03-02T06:15:42.589Z,27.90
2023-03-02T06:18:09.571Z,32.63
2023-03-02T06:20:36.404Z,36.00
2023-03-02T06:23:03.276Z,27.83
2023-03-02T06:25:30.247Z,76.53
2023-03-02T06:27:57.115Z,58.87
2023-03-02T06:30:26.064Z,76.83
2023-03-02T06:32:53.018Z,88.67
2023-03-02T06:35:20.147Z,224.37
2023-03-02T06:37:47.202Z,140.80
2023-03-02T06:40:14.619Z,69.57
2023-03-02T06:42:42.759Z,77.83
2023-03-02T06:45:10.819Z,50.13
2023-03-02T06:47:38.077Z,34.10
2023-03-02T06:50:06.588Z,36.93
2023-03-02T06:52:33.734Z,31.47
2023-03-02T06:55:00.612Z,33.80
2023-03-02T06:57:33.786Z,36.50
2023-03-02T07:00:17.033Z,39.13
2023-03-02T07:02:49.983Z,40.17
2023-03-02T07:05:17.214Z,47.70
2023-03-02T07:07:44.247Z,43.70
2023-03-02T07:10:13.384Z,43.47
2023-03-02T07:12:41.966Z,40.00
2023-03-02T07:15:12.218Z,41.30
2023-03-02T07:17:40.866Z,38.47
2023-03-02T07:20:09.434Z,47.37
2023-03-02T07:22:36.518Z,32.20
2023-03-02T07:25:03.595Z,37.43
2023-03-02T07:27:31.429Z,34.30
2023-03-02T07:29:58.341Z,32.70
2023-03-02T07:32:25.458Z,38.70
2023-03-02T07:34:52.756Z,36.93
2023-03-02T07:37:20.074Z,42.57
2023-03-02T07:39:49.161Z,39.20
2023-03-02T07:42:17.560Z,49.33
2023-03-02T07:44:44.562Z,42.77
2023-03-02T07:47:11.448Z,34.30
2023-03-02T07:49:38.801Z,35.37
2023-03-02T07:52:06.317Z,42.57
2023-03-02T07:54:34.168Z,35.67
2023-03-02T07:57:01.165Z,42.83
2023-03-02T07:59:28.889Z,40.90
2023-03-02T08:01:57.503Z,40.00
2023-03-02T08:04:25.401Z,35.07
2023-03-02T08:06:52.574Z,37.80
2023-03-02T08:09:19.536Z,39.87
2023-03-02T08:11:47.838Z,31.73
2023-03-02T08:14:14.925Z,37.00
2023-03-02T08:16:41.985Z,33.70
2023-03-02T08:19:08.962Z,37.20
2023-03-02T08:21:36.022Z,42.73
2023-03-02T08:24:03.743Z,31.10
2023-03-02T08:26:31.009Z,37.13
2023-03-02T08:28:58.839Z,41.63
2023-03-02T08:31:26.737Z,34.13
2023-03-02T08:33:54.157Z,39.10
2023-03-02T08:36:21.797Z,48.80
2023-03-02T08:38:49.679Z,43.73
2023-03-02T08:41:20.713Z,40.63
2023-03-02T08:43:48.485Z,38.93
2023-03-02T08:46:19.119Z,36.53
2023-03-02T08:48:46.167Z,36.90
2023-03-02T08:51:17.797Z,41.60
2023-03-02T08:53:48.083Z,40.50
2023-03-02T08:56:26.416Z,39.50
2023-03-02T08:58:55.867Z,38.90
2023-03-02T09:01:32.493Z,42.13
2023-03-02T09:04:00.802Z,38.67
2023-03-02T09:06:30.181Z,41.17
2023-03-02T09:08:58.002Z,54.80
2023-03-02T09:11:26.794Z,49.97
2023-03-02T09:13:54.623Z,42.70
2023-03-02T09:16:21.938Z,44.40
2023-03-02T09:18:48.865Z,43.87
2023-03-02T09:21:18.677Z,40.20
2023-03-02T09:23:45.907Z,44.87
2023-03-02T09:26:12.946Z,44.50
2023-03-02T09:28:39.904Z,35.60
2023-03-02T09:31:08.862Z,38.10
2023-03-02T09:33:36.156Z,44.57
2023-03-02T09:36:12.010Z,44.77
2023-03-02T09:38:38.942Z,40.57
2023-03-02T09:41:20.975Z,43.40
2023-03-02T09:44:38.589Z,39.83
2023-03-02T09:47:35.454Z,33.73
2023-03-02T09:50:30.935Z,39.60
2023-03-02T09:53:11.920Z,41.70
2023-03-02T09:55:39.244Z,30.07
2023-03-02T09:58:17.571Z,28.33
2023-03-02T10:00:46.377Z,30.90
2023-03-02T10:03:28.510Z,39.43
2023-03-02T10:05:56.459Z,35.33
2023-03-02T10:08:27.788Z,30.63
2023-03-02T10:11:34.484Z,32.00
2023-03-02T10:14:12.072Z,34.17
2023-03-02T10:17:22.055Z,27.50
2023-03-02T10:19:57.812Z,39.73
2023-03-02T10:22:36.903Z,33.93
2023-03-02T10:25:28.669Z,32.20
2023-03-02T10:28:15.171Z,35.10
2023-03-02T10:30:42.561Z,35.13
2023-03-02T10:33:21.812Z,33.47
2023-03-02T10:35:53.116Z,27.83
2023-03-02T10:38:23.389Z,29.60
2023-03-02T10:41:00.384Z,28.63
2023-03-02T10:43:50.491Z,28.60
2023-03-02T10:46:17.512Z,25.33
2023-03-02T10:49:02.659Z,29.00
2023-03-02T10:51:35.521Z,23.43
2023-03-02T10:54:10.328Z,36.53
2023-03-02T10:56:37.964Z,24.10
2023-03-02T10:59:29.555Z,25.17
2023-03-02T11:02:22.415Z,23.37
2023-03-02T12:05:04.809Z,40.77
2023-03-02T14:23:57.159Z,15.60
2023-03-02T14:32:34.958Z,12.53
2023-03-02T14:41:04.455Z,10.13
2023-03-02T14:43:31.881Z,15.53
2023-03-02T14:45:58.847Z,13.47
2023-03-02T14:48:25.716Z,10.73
2023-03-02T14:50:52.644Z,13.23
2023-03-02T14:53:26.966Z,15.23
2023-03-02T14:55:54.068Z,12.07
2023-03-02T14:58:32.898Z,10.60
2023-03-02T15:01:00.787Z,10.80
2023-03-02T15:03:29.325Z,17.50
2023-03-02T15:06:01.362Z,10.57
2023-03-02T15:08:29.662Z,15.13
2023-03-02T15:10:56.686Z,10.40
2023-03-02T15:13:23.557Z,14.10
2023-03-02T15:15:50.580Z,12.30
2023-03-02T15:18:19.817Z,20.83
2023-03-02T15:20:46.977Z,15.57
2023-03-02T15:23:13.977Z,20.40
2023-03-02T15:25:40.950Z,34.30
2023-03-02T15:28:07.865Z,21.00
2023-03-02T15:30:34.745Z,22.03
2023-03-02T15:33:01.663Z,23.27
2023-03-02T15:35:29.478Z,26.40
2023-03-02T15:37:58.318Z,36.63
2023-03-02T15:40:25.711Z,25.30
2023-03-02T15:42:53.136Z,26.10
2023-03-02T15:45:20.162Z,24.53
2023-03-02T15:47:47.418Z,28.07
2023-03-02T15:50:14.472Z,30.13
2023-03-02T15:52:41.921Z,23.70
2023-03-02T15:55:09.598Z,28.50
2023-03-02T15:57:39.034Z,29.47
2023-03-02T16:00:07.257Z,44.53
2023-03-02T16:02:34.499Z,24.87
2023-03-02T16:05:01.450Z,21.37
2023-03-02T16:07:28.372Z,21.10
2023-03-02T16:09:55.264Z,21.23
2023-03-02T16:12:25.448Z,34.93
2023-03-02T16:14:52.376Z,28.77
2023-03-02T16:17:19.315Z,34.77
2023-03-02T16:19:46.244Z,42.53
2023-03-02T16:22:13.139Z,41.43
2023-03-02T16:24:41.828Z,39.30
2023-03-02T16:27:09.115Z,39.43
2023-03-02T16:29:36.103Z,62.53
2023-03-02T16:32:03.106Z,43.50
2023-03-02T16:34:30.106Z,43.33
2023-03-02T16:36:56.991Z,43.43
2023-03-02T16:39:24.190Z,41.77
2023-03-02T16:41:51.385Z,39.00
2023-03-02T16:44:18.627Z,43.67
2023-03-02T16:46:46.194Z,47.83
2023-03-02T16:49:14.544Z,40.60
2023-03-02T16:51:42.721Z,44.80
2023-03-02T16:54:10.423Z,43.63
2023-03-02T16:56:37.575Z,38.40
2023-03-02T16:59:04.490Z,44.93
2023-03-02T17:01:31.472Z,27.23
2023-03-02T17:03:58.458Z,45.00
2023-03-02T17:06:25.583Z,34.60
2023-03-02T17:08:52.680Z,27.27
2023-03-02T17:11:20.385Z,27.83
2023-03-02T17:13:47.309Z,18.43
2023-03-02T17:16:16.135Z,33.23
2023-03-02T17:18:46.774Z,13.50
2023-03-02T17:21:16.323Z,14.60
2023-03-02T17:23:43.749Z,15.60
2023-03-02T17:26:10.674Z,15.23
2023-03-02T17:28:38.571Z,12.83
2023-03-02T17:31:05.832Z,17.70
2023-03-02T17:33:33.951Z,13.67
2023-03-02T17:36:11.907Z,15.90
2023-03-02T17:38:40.303Z,12.20
2023-03-02T17:41:10.400Z,12.30
2023-03-02T17:43:40.323Z,184.50
2023-03-02T17:46:20.103Z,185.37
2023-03-02T17:48:49.936Z,17.07
2023-03-02T17:51:17.438Z,10.97
2023-03-02T17:53:49.617Z,11.97
2023-03-02T17:56:18.964Z,11.40
2023-03-02T17:58:46.838Z,9.87
2023-03-02T18:01:15.792Z,12.37
2023-03-02T18:03:45.052Z,10.23
2023-03-02T18:06:13.278Z,9.53
2023-03-02T18:08:40.916Z,9.20
2023-03-02T18:11:07.895Z,9.63
2023-03-02T18:13:34.815Z,9.63
2023-03-02T18:16:01.759Z,8.73
2023-03-02T18:18:28.704Z,9.50
2023-03-02T18:20:55.857Z,9.47
2023-03-02T18:23:22.782Z,40.73
2023-03-02T18:25:49.850Z,12.73
2023-03-02T18:28:17.047Z,9.40
2023-03-02T18:30:44.745Z,9.93
2023-03-02T18:33:11.717Z,9.57
2023-03-02T18:35:38.914Z,15.07
2023-03-02T18:38:06.226Z,23.30
2023-03-02T18:40:33.896Z,13.93
2023-03-02T18:43:00.864Z,21.80
2023-03-02T18:45:31.207Z,9.67
2023-03-02T18:47:59.737Z,16.43
2023-03-02T18:50:28.381Z,9.30
2023-03-02T18:52:55.660Z,8.60
2023-03-02T18:55:24.904Z,8.93
2023-03-02T18:57:55.065Z,8.30
2023-03-02T19:00:27.821Z,9.43
2023-03-02T19:02:56.004Z,8.70
2023-03-02T19:05:26.982Z,10.43
2023-03-02T19:07:54.829Z,8.00
2023-03-02T19:10:21.761Z,9.77
2023-03-02T19:12:48.737Z,10.20
2023-03-02T19:15:16.154Z,7.23
2023-03-02T19:17:43.750Z,17.00
2023-03-02T19:20:18.283Z,22.23
2023-03-02T19:22:45.983Z,15.83
2023-03-02T19:25:12.850Z,11.30
2023-03-02T19:27:40.720Z,10.43
2023-03-02T19:30:12.288Z,9.90
2023-03-02T19:32:39.220Z,9.90
2023-03-02T19:35:06.849Z,9.40
2023-03-02T19:37:33.738Z,9.60
2023-03-02T19:40:01.363Z,9.00
2023-03-02T19:42:30.383Z,10.27
2023-03-02T19:44:57.422Z,11.67
2023-03-02T19:47:24.368Z,16.50
2023-03-02T19:49:51.270Z,28.43
2023-03-02T19:52:18.156Z,12.07
2023-03-02T19:54:45.196Z,18.53
2023-03-02T19:57:12.211Z,14.33
2023-03-02T19:59:41.101Z,14.10
2023-03-02T20:02:08.036Z,13.33
2023-03-02T20:04:35.266Z,16.70
2023-03-02T20:07:03.075Z,18.70
2023-03-02T20:09:30.113Z,19.10
2023-03-02T20:11:58.588Z,22.00
2023-03-02T20:14:33.878Z,25.73
2023-03-02T20:17:04.971Z,27.73
2023-03-02T20:19:31.902Z,26.63
2023-03-02T20:21:59.002Z,30.83
2023-03-02T20:24:25.898Z,32.47
2023-03-02T20:26:52.858Z,24.67
2023-03-02T20:29:19.776Z,20.50
2023-03-02T20:31:46.897Z,18.27
2023-03-02T20:34:16.484Z,30.23
2023-03-02T20:36:44.469Z,24.10
2023-03-02T20:39:18.246Z,27.50
2023-03-02T20:41:45.771Z,35.20
2023-03-02T20:44:14.655Z,28.37
2023-03-02T20:46:48.405Z,27.00
2023-03-02T20:49:15.770Z,36.23
2023-03-02T20:51:49.196Z,40.33
2023-03-02T20:54:17.064Z,37.70
2023-03-02T20:56:44.592Z,36.80
2023-03-02T20:59:13.341Z,30.80
2023-03-02T21:01:40.860Z,27.57
2023-03-02T21:04:07.817Z,34.90
2023-03-02T21:06:34.916Z,34.83
2023-03-02T21:09:04.460Z,24.50
2023-03-02T21:11:31.414Z,17.43
2023-03-02T21:13:59.558Z,21.90
2023-03-02T21:16:32.423Z,25.70
2023-03-02T21:18:59.554Z,22.20
2023-03-02T21:21:40.366Z,27.20
2023-03-02T21:24:10.984Z,20.77
2023-03-02T21:26:38.871Z,34.87
2023-03-02T21:29:06.328Z,22.20
2023-03-02T21:31:33.577Z,30.80
2023-03-02T21:34:00.758Z,22.47
2023-03-02T21:36:28.517Z,19.60
2023-03-02T21:38:56.115Z,33.20
2023-03-02T21:41:23.631Z,19.43
2023-03-02T21:43:51.351Z,17.77
2023-03-02T21:46:22.795Z,23.80
2023-03-02T21:48:51.611Z,22.30
2023-03-02T21:51:18.700Z,28.00
2023-03-02T21:53:46.654Z,22.50
2023-03-02T21:56:20.742Z,28.60
2023-03-02T21:58:49.857Z,21.53
2023-03-02T22:01:17.288Z,35.30
2023-03-02T22:03:44.878Z,29.97
2023-03-02T22:06:21.888Z,26.20
2023-03-02T22:08:49.427Z,28.00
2023-03-02T22:11:34.242Z,37.57
2023-03-02T22:14:10.652Z,20.13
2023-03-02T22:16:40.908Z,22.23
2023-03-02T22:19:28.591Z,28.10
2023-03-02T22:22:05.515Z,28.13
2023-03-02T22:24:33.631Z,22.77
2023-03-02T22:27:23.231Z,21.80
2023-03-02T22:29:53.077Z,22.67
2023-03-02T22:32:25.819Z,27.77
2023-03-02T22:35:31.932Z,23.43
2023-03-02T22:38:10.761Z,23.80
2023-03-02T22:40:37.970Z,26.63
2023-03-02T22:43:29.439Z,23.20
2023-03-02T22:46:21.767Z,19.30
2023-03-02T22:48:51.440Z,20.97
2023-03-02T22:51:21.284Z,23.00
2023-03-02T22:53:53.485Z,21.40
2023-03-02T22:56:38.573Z,24.73
2023-03-02T22:59:25.905Z,31.30
2023-03-02T23:02:01.567Z,32.50
2023-03-02T23:04:36.496Z,33.97
2023-03-02T23:07:16.761Z,34.00
2023-03-02T23:09:43.899Z,34.07
2023-03-02T23:12:27.386Z,35.13
2023-03-02T23:14:57.982Z,33.13
2023-03-02T23:17:39.549Z,31.00
2023-03-02T23:20:11.734Z,33.73
2023-03-02T23:22:39.131Z,33.03
2023-03-02T23:25:09.286Z,32.73
2023-03-02T23:27:36.506Z,36.80
2023-03-02T23:30:06.100Z,28.83
2023-03-02T23:32:33.151Z,35.43
2023-03-02T23:35:00.124Z,31.07
2023-03-02T23:37:27.087Z,29.60
2023-03-02T23:39:53.958Z,29.40
2023-03-02T23:42:20.865Z,33.90
2023-03-02T23:44:47.811Z,26.60
2023-03-02T23:47:14.735Z,24.17
2023-03-02T23:49:41.658Z,31.20
2023-03-02T23:52:08.542Z,24.93
2023-03-02T23:54:35.411Z,32.57
2023-03-02T23:57:02.361Z,28.23
2023-03-02T23:59:29.363Z,29.63
